Time;durP1;ratioP1;P1;durP2;ratioP2;P2;SDS_P1;SDS_P2;PMS_P1;PMS_P2;Temp;Humidity;BMP_temperature;BMP_pressure;BME280_temperature;BME280_humidity;BME280_pressure;Samples;Min_cycle;Max_cycle;Signal;HPM_P1;HPM_P2
2021/12/15 00:01:41;;;;;;;93.00;47.05;;;;;;;14.83;56.80;102091.38;5116106;28;20060;-70
2021/12/15 00:04:08;;;;;;;97.88;46.15;;;;;;;14.89;56.81;102088.16;5114797;28;20047;-69
2021/12/15 00:06:35;;;;;;;100.07;46.30;;;;;;;14.69;57.23;102083.63;5113794;28;20453;-70
2021/12/15 00:09:06;;;;;;;94.15;47.35;;;;;;;14.58;57.63;102089.00;5115942;28;20043;-70
2021/12/15 00:11:36;;;;;;;91.18;45.47;;;;;;;14.54;57.46;102091.09;5115255;28;20075;-70
2021/12/15 00:14:13;;;;;;;94.82;46.20;;;;;;;14.88;56.62;102091.84;5115390;28;20075;-70
2021/12/15 00:16:41;;;;;;;87.38;45.63;;;;;;;14.49;57.78;102088.78;5114960;28;20507;-69
2021/12/15 00:19:08;;;;;;;90.32;44.13;;;;;;;14.42;57.85;102089.41;5115431;28;20127;-71
2021/12/15 00:21:36;;;;;;;90.00;46.63;;;;;;;14.10;58.94;102090.22;5115032;28;20453;-70
2021/12/15 00:24:04;;;;;;;92.32;45.90;;;;;;;14.50;57.87;102086.97;5115495;28;20064;-70
2021/12/15 00:26:31;;;;;;;89.93;45.38;;;;;;;14.54;57.66;102090.25;5116162;28;20111;-70
2021/12/15 00:28:58;;;;;;;92.75;45.45;;;;;;;14.14;58.40;102090.81;5116222;28;20092;-70
2021/12/15 00:31:25;;;;;;;90.13;45.25;;;;;;;14.06;59.22;102085.19;5115224;28;20109;-70
2021/12/15 00:33:56;;;;;;;89.63;44.22;;;;;;;14.02;59.53;102084.59;5114391;28;20450;-69
2021/12/15 00:36:22;;;;;;;87.13;43.55;;;;;;;14.25;58.52;102090.78;5114304;28;20479;-71
2021/12/15 00:38:49;;;;;;;83.60;44.67;;;;;;;14.55;57.41;102081.22;5114395;28;20070;-71
2021/12/15 00:41:17;;;;;;;90.38;43.88;;;;;;;14.87;56.77;102087.47;5114757;28;20051;-71
2021/12/15 00:43:44;;;;;;;90.15;44.28;;;;;;;15.05;56.12;102086.88;5114978;28;20142;-70
2021/12/15 00:46:11;;;;;;;88.60;44.35;;;;;;;14.59;57.45;102082.69;5114745;28;20044;-70
2021/12/15 00:48:38;;;;;;;91.18;44.35;;;;;;;14.91;56.73;102086.22;5114029;28;20062;-70
2021/12/15 00:51:05;;;;;;;81.50;42.30;;;;;;;14.76;56.98;102092.03;5113556;28;20043;-70
2021/12/15 00:53:32;;;;;;;81.28;42.13;;;;;;;14.46;57.75;102094.38;5113640;28;20107;-70
2021/12/15 00:55:58;;;;;;;89.63;44.05;;;;;;;14.77;56.94;102089.22;5113567;28;20067;-70
2021/12/15 00:58:25;;;;;;;85.65;43.22;;;;;;;14.48;57.67;102086.22;5114624;28;20063;-70
2021/12/15 01:00:56;;;;;;;86.88;42.42;;;;;;;14.62;57.29;102096.72;5115210;28;20078;-70
2021/12/15 01:03:24;;;;;;;92.00;43.80;;;;;;;14.79;56.87;102097.13;5115421;28;20047;-69
2021/12/15 01:05:59;;;;;;;98.05;42.30;;;;;;;14.40;57.97;102102.09;5114449;28;20123;-70
2021/12/15 01:08:30;;;;;;;89.40;43.90;;;;;;;14.60;57.40;102103.19;5115580;28;20047;-70
2021/12/15 01:11:18;;;;;;;84.45;41.90;;;;;;;14.46;58.03;102104.28;5114518;28;20070;-69
2021/12/15 01:22:10;;;;;;;88.78;42.55;;;;;;;14.98;56.07;102114.25;5097566;28;20066;-70
2021/12/15 01:24:37;;;;;;;92.75;44.22;;;;;;;14.49;57.22;102120.97;5114539;28;20107;-70
2021/12/15 01:27:04;;;;;;;92.85;42.75;;;;;;;14.83;56.87;102120.06;5112661;28;20044;-70
2021/12/15 01:29:30;;;;;;;90.80;42.90;;;;;;;14.31;57.95;102116.28;5112695;28;20123;-70
2021/12/15 01:31:57;;;;;;;88.50;41.58;;;;;;;14.72;57.39;102121.81;5113922;28;20130;-70
2021/12/15 01:34:24;;;;;;;89.00;43.20;;;;;;;14.45;57.69;102126.72;5113595;28;20131;-70
2021/12/15 01:36:50;;;;;;;89.75;42.72;;;;;;;14.76;56.60;102129.63;5114682;28;20114;-70
2021/12/15 01:39:17;;;;;;;90.68;45.22;;;;;;;14.11;58.47;102128.59;5113792;28;20106;-70
2021/12/15 01:41:45;;;;;;;94.55;43.67;;;;;;;14.48;57.34;102126.47;5113180;28;20043;-71
2021/12/15 01:46:57;;;;;;;89.90;41.80;;;;;;;14.54;57.73;102114.41;5114192;28;20051;-70
2021/12/15 01:49:37;;;;;;;89.85;41.95;;;;;;;14.59;57.28;102112.22;5111270;28;20062;-70
2021/12/15 01:52:28;;;;;;;86.07;42.25;;;;;;;14.88;56.51;102113.31;5114172;28;20437;-70
2021/12/15 01:55:00;;;;;;;62.13;30.77;;;;;;;14.84;56.57;102114.56;5103472;28;20039;-69
2021/12/15 01:57:30;;;;;;;95.10;40.78;;;;;;;14.91;56.30;102113.06;5114139;28;20039;-70
2021/12/15 01:59:58;;;;;;;84.30;41.45;;;;;;;14.73;56.70;102114.59;5118344;28;20063;-71
2021/12/15 02:02:24;;;;;;;81.32;42.08;;;;;;;14.86;56.55;102117.09;5117149;28;20043;-70
2021/12/15 02:04:53;;;;;;;81.72;41.15;;;;;;;15.09;55.72;102123.22;5118685;28;20043;-70
2021/12/15 02:07:32;;;;;;;86.90;40.63;;;;;;;15.12;55.71;102113.09;5119177;28;20044;-70
2021/12/15 02:10:06;;;;;;;77.93;38.78;;;;;;;15.22;55.32;102115.84;5116739;28;20388;-70
2021/12/15 02:12:53;;;;;;;76.32;37.80;;;;;;;14.45;57.33;102107.94;5115241;28;20047;-70
2021/12/15 02:15:24;;;;;;;83.28;39.30;;;;;;;14.62;57.13;102106.59;5116565;28;20496;-70
2021/12/15 02:17:51;;;;;;;88.05;40.30;;;;;;;14.35;58.33;102101.63;5116084;28;20503;-70
2021/12/15 02:20:20;;;;;;;83.25;40.22;;;;;;;14.50;57.63;102098.56;5117355;28;20073;-70
2021/12/15 02:22:47;;;;;;;81.50;39.15;;;;;;;14.94;56.27;102099.38;5117560;28;20051;-70
2021/12/15 02:25:15;;;;;;;78.78;37.90;;;;;;;14.36;58.29;102103.31;5116546;28;20047;-71
2021/12/15 02:27:42;;;;;;;77.65;38.38;;;;;;;14.40;57.54;102104.78;5115974;28;20134;-70
2021/12/15 02:38:27;;;;;;;80.28;38.30;;;;;;;14.53;57.12;102104.66;5116126;28;20047;-71
2021/12/15 02:40:54;;;;;;;79.50;40.10;;;;;;;14.30;57.81;102107.34;5117068;28;20134;-70
2021/12/15 02:43:20;;;;;;;79.65;39.17;;;;;;;14.59;57.40;102109.53;5118047;28;20463;-70
2021/12/15 02:45:47;;;;;;;82.93;38.97;;;;;;;14.88;56.33;102110.63;5116577;28;20078;-70
2021/12/15 02:48:13;;;;;;;78.18;35.90;;;;;;;15.10;56.12;102104.31;5117323;28;20465;-70
2021/12/15 02:50:40;;;;;;;81.80;38.60;;;;;;;14.85;56.32;102107.34;5105985;27;20134;-70
2021/12/15 02:53:07;;;;;;;82.88;37.60;;;;;;;14.63;56.81;102114.50;5115348;28;20039;-70
2021/12/15 02:55:34;;;;;;;76.65;36.17;;;;;;;14.95;56.20;102119.88;5117127;28;20051;-70
2021/12/15 02:58:00;;;;;;;76.13;36.50;;;;;;;15.08;55.69;102117.03;5116481;28;20044;-70
2021/12/15 03:00:37;;;;;;;69.22;34.88;;;;;;;14.49;57.62;102118.28;5116479;28;20130;-70
2021/12/15 03:05:50;;;;;;;78.72;37.33;;;;;;;15.25;55.30;102123.66;5118271;28;20063;-70
2021/12/15 03:08:22;;;;;;;71.75;35.35;;;;;;;15.19;55.40;102118.78;5117367;28;20116;-70
2021/12/15 03:16:27;;;;;;;70.63;33.78;;;;;;;15.13;55.36;102119.31;5097305;28;20130;-70
2021/12/15 03:18:59;;;;;;;71.80;34.90;;;;;;;15.02;55.64;102119.38;5104713;28;20043;-69
2021/12/15 03:21:27;;;;;;;74.80;36.05;;;;;;;14.83;56.23;102118.22;5116988;28;20064;-70
2021/12/15 03:24:02;;;;;;;72.15;34.75;;;;;;;14.94;55.90;102112.81;5107291;28;20103;-70
2021/12/15 03:26:36;;;;;;;66.18;34.60;;;;;;;14.25;57.81;102114.94;5099390;28;20058;-70
2021/12/15 03:37:23;;;;;;;68.53;34.22;;;;;;;14.49;57.03;102109.41;5116727;28;20044;-69
2021/12/15 03:40:12;;;;;;;72.68;34.45;;;;;;;14.79;56.58;102114.09;5115505;28;20056;-70
2021/12/15 03:42:45;;;;;;;65.05;32.38;;;;;;;14.77;56.31;102115.19;5115609;28;20048;-70
2021/12/15 03:45:16;;;;;;;60.38;32.38;;;;;;;14.86;56.31;102103.69;5114317;28;20495;-70
2021/12/15 03:47:47;;;;;;;66.78;32.63;;;;;;;14.84;55.93;102105.66;5114432;28;20051;-69
2021/12/15 03:50:16;;;;;;;61.00;31.50;;;;;;;14.96;56.13;102100.13;5107266;28;20130;-69
2021/12/15 03:52:48;;;;;;;58.03;31.70;;;;;;;14.25;57.61;102101.50;5115513;27;20074;-70
2021/12/15 03:55:16;;;;;;;59.15;31.92;;;;;;;14.45;57.54;102091.84;5107413;28;20070;-70
2021/12/15 03:57:50;;;;;;;67.15;32.35;;;;;;;14.62;57.13;102096.72;5115396;28;20040;-70
2021/12/15 04:00:18;;;;;;;60.70;31.80;;;;;;;14.58;56.89;102099.75;5116333;28;20107;-70
2021/12/15 04:02:45;;;;;;;59.50;30.77;;;;;;;14.60;56.72;102104.03;5092511;28;20055;-70
2021/12/15 04:05:14;;;;;;;60.55;30.67;;;;;;;14.95;56.05;102105.59;5098639;28;20513;-70
2021/12/15 04:07:40;;;;;;;57.45;31.25;;;;;;;14.82;56.13;102097.72;5114217;28;20045;-70
2021/12/15 04:10:11;;;;;;;53.30;28.98;;;;;;;14.86;56.02;102109.91;5113912;28;20044;-70
2021/12/15 04:12:38;;;;;;;55.43;30.10;;;;;;;14.85;55.93;102105.50;5114842;28;20078;-70
2021/12/15 04:15:30;;;;;;;59.13;29.65;;;;;;;14.55;57.07;102100.00;5097029;28;20305;-70
2021/12/15 04:18:00;;;;;;;53.97;30.00;;;;;;;14.49;56.92;102099.50;5094760;28;20064;-70
2021/12/15 04:20:29;;;;;;;53.08;29.75;;;;;;;14.73;56.37;102104.72;5099631;28;20083;-70
2021/12/15 04:22:58;;;;;;;52.50;28.95;;;;;;;14.74;56.43;102101.03;5113318;28;20496;-70
2021/12/15 04:25:29;;;;;;;58.30;29.42;;;;;;;14.81;56.22;102100.53;5114238;28;20411;-70
2021/12/15 04:28:04;;;;;;;59.67;30.77;;;;;;;14.79;56.38;102102.47;5115030;28;20571;-70
2021/12/15 04:30:34;;;;;;;56.80;29.73;;;;;;;14.68;56.27;102106.91;5116035;28;20130;-69
2021/12/15 04:33:07;;;;;;;54.42;28.20;;;;;;;15.25;55.15;102109.38;5116503;28;20127;-69
2021/12/15 04:35:35;;;;;;;53.63;28.98;;;;;;;14.78;55.90;102101.63;5116452;28;20555;-69
2021/12/15 04:38:02;;;;;;;51.70;29.70;;;;;;;15.08;55.17;102102.75;5116100;28;20056;-70
2021/12/15 04:40:29;;;;;;;51.85;28.25;;;;;;;14.07;57.88;102113.72;5115611;28;20119;-70
2021/12/15 04:42:56;;;;;;;48.38;27.33;;;;;;;14.97;55.63;102109.88;5114779;28;20518;-69
2021/12/15 04:45:22;;;;;;;53.17;28.17;;;;;;;14.60;56.67;102111.22;5114929;28;20122;-69
2021/12/15 04:47:51;;;;;;;54.03;28.33;;;;;;;14.44;57.63;102112.47;5114633;28;20476;-70
2021/12/15 04:50:21;;;;;;;52.38;28.48;;;;;;;15.00;55.47;102119.50;5115364;28;20051;-70
2021/12/15 04:52:48;;;;;;;53.47;28.80;;;;;;;14.57;56.62;102111.47;5115517;28;20047;-70
2021/12/15 04:55:15;;;;;;;49.75;28.00;;;;;;;14.38;57.58;102117.47;5115280;28;20130;-70
2021/12/15 04:57:41;;;;;;;52.40;28.42;;;;;;;14.39;57.16;102122.69;5115592;28;20408;-70
2021/12/15 05:00:13;;;;;;;49.58;26.17;;;;;;;14.56;56.68;102133.94;5114711;28;20126;-70
2021/12/15 05:02:40;;;;;;;58.28;28.92;;;;;;;14.74;56.40;102132.41;5114319;28;20124;-70
2021/12/15 05:05:09;;;;;;;46.13;25.92;;;;;;;14.84;56.31;102144.09;5115263;28;20127;-70
2021/12/15 05:07:36;;;;;;;53.03;28.90;;;;;;;14.23;57.39;102141.84;5114589;28;20058;-70
2021/12/15 05:10:05;;;;;;;49.72;27.40;;;;;;;14.59;56.39;102142.56;5114580;28;20515;-70
2021/12/15 05:12:32;;;;;;;54.15;28.10;;;;;;;14.64;56.47;102148.41;5113279;28;20138;-70
2021/12/15 05:14:59;;;;;;;53.35;26.60;;;;;;;15.03;55.78;102146.06;5114763;28;20046;-70
2021/12/15 05:17:25;;;;;;;54.15;27.20;;;;;;;14.68;56.33;102149.00;5114619;28;20071;-70
2021/12/15 05:19:57;;;;;;;51.20;29.40;;;;;;;14.82;56.11;102154.09;5113998;28;20090;-70
2021/12/15 05:22:24;;;;;;;49.58;25.42;;;;;;;14.78;56.00;102155.31;5112405;28;20135;-70
2021/12/15 05:24:50;;;;;;;48.92;27.20;;;;;;;14.49;56.87;102150.50;5114313;28;20134;-70
2021/12/15 05:27:18;;;;;;;53.88;28.65;;;;;;;14.57;56.72;102152.56;5115017;28;20139;-70
2021/12/15 05:29:50;;;;;;;51.25;27.75;;;;;;;14.95;55.84;102157.47;5115218;28;20126;-70
2021/12/15 05:32:19;;;;;;;50.95;26.58;;;;;;;14.97;55.73;102155.50;5114187;28;20043;-70
2021/12/15 05:34:46;;;;;;;48.15;26.17;;;;;;;14.71;56.43;102160.34;5114868;28;20453;-70
2021/12/15 05:37:14;;;;;;;50.13;27.85;;;;;;;15.09;55.37;102158.16;5114032;28;20372;-70
2021/12/15 05:39:43;;;;;;;54.65;29.10;;;;;;;14.77;56.49;102159.00;5113932;28;20123;-70
2021/12/15 05:42:10;;;;;;;49.40;27.45;;;;;;;14.70;56.32;102152.44;5113290;28;20058;-70
2021/12/15 05:44:38;;;;;;;53.55;28.52;;;;;;;14.73;55.96;102162.91;5114003;28;20122;-70
2021/12/15 05:47:05;;;;;;;56.00;30.60;;;;;;;14.69;56.39;102158.78;5114588;28;20503;-70
2021/12/15 05:49:33;;;;;;;58.78;29.85;;;;;;;14.65;56.67;102158.19;5113788;28;20094;-70
2021/12/15 05:51:59;;;;;;;55.65;29.92;;;;;;;14.78;56.36;102158.00;5114357;28;20042;-70
2021/12/15 05:54:27;;;;;;;52.65;28.88;;;;;;;14.90;56.14;102159.69;5114232;28;20067;-70
2021/12/15 05:56:54;;;;;;;52.80;29.40;;;;;;;14.61;56.85;102158.53;5115474;28;20069;-71
2021/12/15 05:59:20;;;;;;;53.95;29.33;;;;;;;14.52;57.46;102162.00;5113950;28;20075;-70
2021/12/15 06:01:48;;;;;;;58.88;29.63;;;;;;;14.91;56.18;102160.53;5114147;28;20074;-70
2021/12/15 06:04:15;;;;;;;58.35;31.13;;;;;;;14.34;57.67;102166.97;5115452;28;20475;-70
2021/12/15 06:06:41;;;;;;;56.40;29.60;;;;;;;14.65;57.17;102165.34;5114118;28;20130;-70
2021/12/15 06:09:10;;;;;;;59.70;28.90;;;;;;;14.89;56.37;102171.38;5115098;28;20112;-70
2021/12/15 06:11:37;;;;;;;56.90;29.05;;;;;;;14.43;57.43;102175.13;5113915;28;20072;-70
2021/12/15 06:14:04;;;;;;;55.90;28.00;;;;;;;14.79;56.27;102170.47;5114011;28;20055;-70
2021/12/15 06:16:32;;;;;;;54.95;28.85;;;;;;;14.36;57.51;102175.75;5113654;28;20522;-70
2021/12/15 06:18:58;;;;;;;54.75;29.48;;;;;;;14.28;58.36;102171.84;5111557;28;20118;-70
2021/12/15 06:21:25;;;;;;;50.55;28.77;;;;;;;14.40;57.57;102172.69;5113671;28;20040;-70
2021/12/15 06:23:52;;;;;;;54.42;28.60;;;;;;;14.28;57.79;102171.84;5114206;28;20126;-70
2021/12/15 06:26:19;;;;;;;56.35;28.17;;;;;;;14.15;58.22;102176.50;5114468;28;20071;-70
2021/12/15 06:28:46;;;;;;;56.25;28.08;;;;;;;14.20;57.97;102171.63;5115310;28;20071;-70
2021/12/15 06:31:16;;;;;;;56.13;28.73;;;;;;;14.61;56.86;102178.19;5113515;28;20058;-71
2021/12/15 06:33:45;;;;;;;54.65;29.17;;;;;;;14.24;58.34;102177.59;5114732;28;20039;-70
2021/12/15 06:36:14;;;;;;;60.72;29.17;;;;;;;14.06;59.20;102177.19;5114294;28;20040;-70
2021/12/15 06:38:44;;;;;;;52.88;28.60;;;;;;;14.24;57.93;102175.75;5114861;28;20409;-70
2021/12/15 06:41:12;;;;;;;53.90;27.27;;;;;;;14.64;56.61;102171.72;5114033;28;20067;-70
2021/12/15 06:43:42;;;;;;;58.38;30.08;;;;;;;13.99;58.68;102179.53;5113482;28;20078;-70
2021/12/15 06:59:45;;;;;;;52.10;27.95;;;;;;;13.77;59.48;102190.22;5116100;28;20430;-71
2021/12/15 07:02:14;;;;;;;53.20;28.35;;;;;;;14.56;57.36;102184.91;5118527;28;20119;-70
2021/12/15 07:04:40;;;;;;;52.67;27.35;;;;;;;14.01;58.52;102187.47;5118370;28;20060;-70
2021/12/15 07:07:07;;;;;;;49.88;26.63;;;;;;;13.94;59.04;102189.75;5118247;28;20127;-70
2021/12/15 07:09:34;;;;;;;47.58;26.45;;;;;;;13.86;59.01;102189.53;5117654;28;20067;-70
2021/12/15 07:12:03;;;;;;;49.90;26.90;;;;;;;14.43;57.85;102187.69;5116961;28;20122;-70
2021/12/15 07:14:30;;;;;;;55.65;27.70;;;;;;;14.30;57.83;102193.19;5115934;28;20063;-70
2021/12/15 07:16:58;;;;;;;55.42;30.40;;;;;;;14.24;57.58;102199.06;5111077;28;20066;-70
2021/12/15 07:22:07;;;;;;;51.58;28.63;;;;;;;14.39;57.75;102207.69;5117082;28;20067;-71
2021/12/15 07:24:36;;;;;;;45.70;26.60;;;;;;;14.06;58.44;102211.22;5115266;28;20468;-70
2021/12/15 07:27:05;;;;;;;49.00;26.13;;;;;;;14.53;57.06;102220.03;5094849;28;20127;-70
2021/12/15 07:29:32;;;;;;;48.05;26.75;;;;;;;14.13;58.30;102215.13;5095929;28;20074;-71
2021/12/15 07:31:59;;;;;;;49.05;27.27;;;;;;;13.92;59.02;102214.97;5096409;28;20475;-71
2021/12/15 07:34:26;;;;;;;45.83;26.23;;;;;;;14.85;56.50;102215.59;5109167;28;20122;-70
2021/12/15 07:36:53;;;;;;;47.60;26.23;;;;;;;14.52;57.14;102216.50;5116673;28;20130;-70
2021/12/15 07:39:22;;;;;;;44.75;24.77;;;;;;;14.68;57.05;102216.97;5116538;28;20047;-71
2021/12/15 07:42:02;;;;;;;44.58;24.15;;;;;;;15.02;56.01;102213.34;5117784;28;20074;-71
2021/12/15 07:44:28;;;;;;;46.53;25.77;;;;;;;14.22;58.18;102219.78;5115408;28;20151;-71
2021/12/15 07:46:55;;;;;;;41.60;24.20;;;;;;;14.08;58.62;102223.53;5116331;28;20063;-71
2021/12/15 07:49:24;;;;;;;43.78;24.58;;;;;;;14.67;56.98;102215.25;5117174;28;20370;-71
2021/12/15 07:51:59;;;;;;;45.10;25.58;;;;;;;14.66;56.65;102218.09;5117065;28;20067;-70
2021/12/15 07:54:28;;;;;;;43.35;24.35;;;;;;;14.29;57.61;102215.63;5116371;28;20071;-70
2021/12/15 07:56:54;;;;;;;43.33;23.95;;;;;;;14.32;58.39;102218.06;5115981;28;20059;-70
2021/12/15 07:59:21;;;;;;;37.65;22.70;;;;;;;14.27;57.76;102215.75;5116382;28;20475;-70
2021/12/15 08:01:48;;;;;;;45.30;23.85;;;;;;;14.39;58.14;102219.28;5117390;28;20067;-70
2021/12/15 08:04:16;;;;;;;40.70;23.70;;;;;;;14.68;57.03;102216.09;5117271;28;20047;-71
2021/12/15 08:06:45;;;;;;;45.92;23.80;;;;;;;14.93;55.90;102218.50;5116698;28;20091;-71
2021/12/15 08:09:13;;;;;;;40.60;22.38;;;;;;;14.84;56.53;102219.25;5116516;28;20069;-71
2021/12/15 08:11:40;;;;;;;36.58;21.58;;;;;;;14.89;56.30;102224.25;5116715;28;20078;-71
2021/12/15 08:14:08;;;;;;;41.13;21.88;;;;;;;14.40;57.75;102226.34;5116388;28;20047;-70
2021/12/15 08:16:35;;;;;;;39.15;21.85;;;;;;;14.49;57.13;102230.97;5115846;28;20075;-70
2021/12/15 08:19:02;;;;;;;42.80;22.08;;;;;;;14.36;57.91;102224.03;5115816;28;20419;-71
2021/12/15 08:21:29;;;;;;;34.70;20.83;;;;;;;14.58;57.23;102232.13;5116150;28;20044;-74
2021/12/15 08:23:56;;;;;;;36.40;20.35;;;;;;;14.80;56.53;102236.59;5114055;28;20067;-73
2021/12/15 08:26:23;;;;;;;35.88;20.85;;;;;;;14.63;57.19;102239.78;5114331;28;20127;-73
2021/12/15 08:28:51;;;;;;;39.88;21.13;;;;;;;14.94;56.00;102244.38;5114299;28;20134;-73
2021/12/15 08:31:19;;;;;;;38.63;21.45;;;;;;;14.45;57.73;102237.59;5114345;28;20093;-73
2021/12/15 08:33:46;;;;;;;35.33;20.80;;;;;;;14.61;57.42;102233.69;5114303;28;20514;-73
2021/12/15 08:36:14;;;;;;;35.17;21.45;;;;;;;14.36;58.13;102238.31;5113594;28;20044;-73
2021/12/15 08:38:43;;;;;;;36.33;21.80;;;;;;;14.44;58.23;102235.88;5113857;28;20122;-73
2021/12/15 08:41:13;;;;;;;33.85;21.35;;;;;;;14.84;56.71;102243.41;5114256;28;20127;-73
2021/12/15 08:43:40;;;;;;;38.60;22.35;;;;;;;15.19;55.79;102247.72;5113598;28;20063;-73
2021/12/15 08:46:12;;;;;;;36.22;21.90;;;;;;;15.17;55.38;102247.00;5112828;28;20130;-73
2021/12/15 08:48:39;;;;;;;;;;;;;;;15.17;55.33;102249.69;5114131;28;20048;-73
2021/12/15 08:51:07;;;;;;;41.90;21.50;;;;;;;14.95;56.20;102248.75;5112886;28;19962;-73
2021/12/15 08:53:35;;;;;;;36.00;20.98;;;;;;;14.86;56.89;102245.97;5113464;28;20097;-73
2021/12/15 08:56:03;;;;;;;38.22;22.98;;;;;;;14.69;57.17;102248.22;5113454;28;20475;-73
2021/12/15 08:58:30;;;;;;;40.30;22.20;;;;;;;15.17;56.16;102241.63;5113584;28;20063;-73
2021/12/15 09:00:58;;;;;;;36.65;22.65;;;;;;;14.45;58.01;102247.47;5114028;28;20457;-73
2021/12/15 09:03:27;;;;;;;38.72;21.88;;;;;;;15.40;55.40;102248.63;5114639;28;20070;-73
2021/12/15 09:05:57;;;;;;;38.15;22.65;;;;;;;14.77;57.12;102250.25;5113274;28;20134;-73
2021/12/15 09:08:24;;;;;;;39.45;23.13;;;;;;;15.45;54.98;102253.63;5112629;28;20123;-73
2021/12/15 09:10:54;;;;;;;36.00;21.65;;;;;;;15.27;55.89;102250.63;5114786;28;20100;-74
2021/12/15 09:13:21;;;;;;;35.55;21.15;;;;;;;14.81;56.91;102246.34;5113834;28;20040;-74
2021/12/15 09:15:48;;;;;;;32.00;20.75;;;;;;;15.06;56.52;102250.56;5114329;28;20071;-73
2021/12/15 09:18:15;;;;;;;34.22;20.67;;;;;;;15.37;55.79;102253.41;5114951;28;20055;-73
2021/12/15 09:20:44;;;;;;;37.67;19.92;;;;;;;14.65;57.15;102243.19;5115612;28;20067;-73
2021/12/15 09:23:14;;;;;;;29.00;19.95;;;;;;;15.26;56.01;102250.75;5110475;28;20046;-73
2021/12/15 09:25:41;;;;;;;28.90;18.40;;;;;;;15.36;55.57;102257.94;5114945;28;20127;-73
2021/12/15 09:28:08;;;;;;;29.65;18.98;;;;;;;15.19;56.10;102255.78;5113960;28;20128;-73
2021/12/15 09:30:44;;;;;;;26.77;18.48;;;;;;;15.38;55.61;102250.59;5114998;28;20067;-73
2021/12/15 09:33:12;;;;;;;32.75;20.17;;;;;;;15.27;55.50;102250.63;5115476;28;20531;-73
2021/12/15 09:35:39;;;;;;;30.73;19.67;;;;;;;15.31;55.68;102254.78;5112922;28;20052;-73
2021/12/15 09:38:12;;;;;;;32.70;19.95;;;;;;;15.49;55.12;102256.91;5113253;28;20074;-72
2021/12/15 09:40:40;;;;;;;30.60;19.23;;;;;;;15.62;54.81;102250.38;5113320;28;20044;-73
2021/12/15 09:43:07;;;;;;;30.40;19.30;;;;;;;15.76;54.26;102254.63;5114051;28;20446;-72
2021/12/15 09:45:50;;;;;;;30.15;18.98;;;;;;;15.66;54.48;102253.69;5113970;28;20066;-72
2021/12/15 10:07:21;;;;;;;30.08;20.25;;;;;;;15.77;54.36;102240.19;5112762;28;20039;-73
2021/12/15 10:20:52;;;;;;;29.13;19.60;;;;;;;15.53;55.29;102235.00;5116569;28;20047;-73
2021/12/15 10:23:24;;;;;;;27.13;18.38;;;;;;;15.80;54.71;102223.78;5117930;28;20096;-73
2021/12/15 10:25:54;;;;;;;33.63;19.48;;;;;;;15.83;54.23;102226.22;5118106;28;20141;-73
2021/12/15 10:28:23;;;;;;;25.90;16.98;;;;;;;15.77;54.48;102234.81;5118264;28;20073;-73
2021/12/15 10:30:54;;;;;;;29.20;18.50;;;;;;;16.10;53.60;102236.41;5118607;28;20536;-74
2021/12/15 10:33:25;;;;;;;27.52;18.35;;;;;;;15.46;55.38;102229.31;5117677;28;20047;-74
2021/12/15 10:36:05;;;;;;;26.83;17.70;;;;;;;15.18;56.26;102225.38;5115928;28;20044;-73
2021/12/15 10:38:43;;;;;;;29.98;17.35;;;;;;;15.36;55.70;102228.38;5116271;28;20131;-73
2021/12/15 10:41:20;;;;;;;25.95;17.83;;;;;;;15.76;54.64;102230.41;5116289;28;20055;-73
2021/12/15 10:44:08;;;;;;;28.13;19.10;;;;;;;15.90;53.95;102226.53;5116539;28;20126;-73
2021/12/15 10:46:38;;;;;;;27.20;17.55;;;;;;;15.86;54.45;102222.38;5116105;28;20122;-73
2021/12/15 10:49:29;;;;;;;25.85;17.83;;;;;;;15.78;54.37;102225.75;5116226;28;20043;-72
2021/12/15 10:52:03;;;;;;;28.05;17.92;;;;;;;15.79;54.17;102226.59;5116643;28;20149;-73
2021/12/15 10:54:35;;;;;;;24.33;16.65;;;;;;;15.54;55.41;102228.66;5106410;28;20048;-74
2021/12/15 10:57:11;;;;;;;28.15;18.52;;;;;;;15.89;54.19;102228.34;5117471;28;20123;-72
2021/12/15 10:59:48;;;;;;;29.63;18.02;;;;;;;15.79;54.66;102234.66;5117942;28;20470;-73
2021/12/15 11:02:35;;;;;;;29.27;17.35;;;;;;;16.14;53.36;102236.97;5117617;28;20044;-73
2021/12/15 11:05:21;;;;;;;30.02;17.52;;;;;;;16.03;53.96;102242.44;5116924;28;20050;-74
2021/12/15 11:07:56;;;;;;;28.17;17.90;;;;;;;15.91;54.13;102236.31;5116927;28;20490;-74
2021/12/15 11:10:27;;;;;;;28.42;18.38;;;;;;;15.16;56.50;102234.53;5118467;28;20048;-73
2021/12/15 11:13:11;;;;;;;25.33;16.80;;;;;;;15.48;55.91;102239.06;5117643;28;20126;-73
2021/12/15 11:15:50;;;;;;;25.95;17.10;;;;;;;16.04;54.24;102236.13;5118173;28;20089;-72
2021/12/15 11:18:20;;;;;;;26.40;17.45;;;;;;;15.93;54.26;102239.69;5118565;28;20078;-72
2021/12/15 11:20:54;;;;;;;26.98;16.27;;;;;;;16.33;53.25;102234.41;5117870;28;20122;-72
2021/12/15 11:23:26;;;;;;;27.92;17.15;;;;;;;16.33;53.23;102230.88;5117653;28;20464;-72
2021/12/15 11:25:57;;;;;;;28.40;16.52;;;;;;;16.40;52.91;102230.19;5116325;28;20131;-72
2021/12/15 11:28:41;;;;;;;28.85;17.45;;;;;;;16.46;52.93;102227.94;5116279;28;20059;-73
2021/12/15 11:31:15;;;;;;;24.58;16.85;;;;;;;16.15;53.64;102227.94;5116184;28;20472;-73
2021/12/15 11:33:51;;;;;;;26.98;16.92;;;;;;;16.21;53.35;102216.66;5115512;28;20054;-73
2021/12/15 11:36:31;;;;;;;24.25;16.08;;;;;;;16.03;53.99;102219.09;5116095;28;20136;-72
2021/12/15 11:39:03;;;;;;;25.15;15.68;;;;;;;16.20;53.30;102220.31;5116553;28;20092;-72
2021/12/15 11:41:40;;;;;;;23.33;14.80;;;;;;;16.36;53.05;102212.59;5114737;28;20369;-72
2021/12/15 11:44:16;;;;;;;21.42;15.07;;;;;;;16.03;53.61;102220.94;5117153;28;20078;-72
2021/12/15 11:46:49;;;;;;;21.08;14.48;;;;;;;16.20;53.67;102219.47;5116739;28;20126;-73
2021/12/15 11:49:23;;;;;;;22.67;15.18;;;;;;;16.15;53.46;102223.41;5117525;28;20536;-73
2021/12/15 11:51:54;;;;;;;20.98;15.32;;;;;;;16.38;53.01;102213.34;5098430;28;20075;-72
2021/12/15 11:54:39;;;;;;;24.30;14.75;;;;;;;16.29;53.23;102207.91;5114141;28;20483;-72
2021/12/15 11:57:15;;;;;;;19.35;13.90;;;;;;;15.28;55.99;102216.56;5118789;28;20122;-73
2021/12/15 11:59:45;;;;;;;21.23;14.30;;;;;;;16.42;53.55;102203.16;5117440;28;20063;-72
2021/12/15 12:02:23;;;;;;;23.42;13.30;;;;;;;16.31;53.32;102204.06;5116810;28;20071;-73
2021/12/15 12:04:53;;;;;;;27.40;18.13;;;;;;;16.45;53.00;102204.69;5116622;28;20480;-72
2021/12/15 12:07:32;;;;;;;23.15;14.65;;;;;;;16.33;53.17;102199.41;5114836;28;20071;-72
2021/12/15 12:10:06;;;;;;;21.73;13.52;;;;;;;16.15;53.74;102199.19;5117220;28;20118;-71
2021/12/15 12:12:40;;;;;;;18.35;12.45;;;;;;;15.88;54.78;102186.31;5098729;28;20498;-72
2021/12/15 12:15:14;;;;;;;16.65;11.93;;;;;;;15.81;54.78;102184.31;5115163;28;20492;-71
2021/12/15 12:17:43;;;;;;;20.88;13.75;;;;;;;15.64;55.19;102175.81;5114565;28;20131;-72
2021/12/15 12:20:17;;;;;;;17.08;12.85;;;;;;;15.73;54.99;102179.59;5113156;28;20084;-71
2021/12/15 12:22:45;;;;;;;23.20;12.73;;;;;;;16.14;54.20;102167.03;5094618;28;20492;-72
2021/12/15 12:25:20;;;;;;;18.27;11.60;;;;;;;16.08;54.42;102181.06;5094861;28;20048;-72
2021/12/15 12:27:49;;;;;;;19.60;12.57;;;;;;;16.13;54.30;102181.47;5101392;28;20077;-71
2021/12/15 12:30:19;;;;;;;17.00;11.60;;;;;;;16.71;52.77;102175.44;5105380;28;20455;-72
2021/12/15 12:32:46;;;;;;;17.80;11.63;;;;;;;16.72;52.62;102188.75;5115006;28;20048;-72
2021/12/15 12:35:18;;;;;;;15.88;11.48;;;;;;;16.51;53.16;102185.31;5113240;28;20464;-72
2021/12/15 12:37:58;;;;;;;17.80;11.90;;;;;;;16.64;52.95;102192.16;5094453;28;20126;-73
2021/12/15 12:40:30;;;;;;;20.65;11.98;;;;;;;17.05;51.79;102189.44;5096009;28;20055;-72
2021/12/15 12:42:57;;;;;;;21.65;12.68;;;;;;;16.61;52.67;102197.81;5094740;28;20433;-72
2021/12/15 12:45:40;;;;;;;19.77;11.80;;;;;;;16.68;52.45;102190.03;5107448;28;20118;-72